Flight Track Log - Related Links

Times and Time Zones

All times are in EDT time to prevent confusion due to time zone crossing. See the FDX1347 flight status page for this flight to view local times or setup timezone preferences in your user account.

Time Position Orientation Groundspeed Altitude Reporting Facility
EDT Latitude Longitude Course Direction KTS MPH feet Rate Location/Type
Tue 09:55:19 PM 42.7194 -73.8078 252° West 180 207 1,600  Level Boston Center
Tue 09:57:07 PM 42.6953 -73.9092 252° West 207 238 6,300 2,661 Climbing Boston Center
Tue 10:02:50 PM 42.6070 -74.5920 252° West 396 456 21,600 2,592 Climbing FlightAware ADS-B
Tue 10:03:29 PM 42.5880 -74.6900 255° West 407 468 22,800 1,012 Climbing FlightAware ADS-B
Tue 10:04:13 PM 42.5660 -74.8020 255° West 414 476 23,000 714 Climbing FlightAware ADS-B
Tue 10:04:53 PM 42.5470 -74.9000 255° West 415 478 23,800 1,902 Climbing FlightAware ADS-B
Tue 10:05:35 PM 42.5200 -75.0030 250° West 410 472 25,600 2,286 Climbing FlightAware ADS-B
Tue 10:06:17 PM 42.4660 -75.0830 228° Southwest 418 481 27,000 955 Climbing FlightAware ADS-B
Tue 10:07:03 PM 42.4050 -75.1820 230° Southwest 448 516 27,000  Level FlightAware ADS-B
Tue 10:07:45 PM 42.3550 -75.2760 234° Southwest 451 519 27,000  Level FlightAware ADS-B
Tue 10:08:23 PM 42.3100 -75.3640 235° Southwest 451 519 27,000 146 Level FlightAware ADS-B
Tue 10:09:07 PM 42.2580 -75.4690 236° Southwest 449 517 27,200 818 Climbing FlightAware ADS-B
Tue 10:09:51 PM 42.2070 -75.5670 235° Southwest 461 531 28,200 1,615 Climbing FlightAware ADS-B
Tue 10:10:25 PM 42.1640 -75.6520 236° Southwest 459 528 29,300 2,538 Climbing FlightAware ADS-B
Tue 10:11:09 PM 42.1140 -75.7500 236° Southwest 435 501 31,500 2,267 Climbing FlightAware ADS-B
Tue 10:11:55 PM 42.0600 -75.8550 235° Southwest 432 497 32,700 1,043 Climbing FlightAware ADS-B
Tue 10:12:41 PM 42.0030 -75.9370 227° Southwest 438 504 33,100 1,519 Climbing FlightAware ADS-B
Tue 10:13:14 PM 41.9392 -75.9932 213° Southwest 441 507 34,700 2,476 Climbing FlightAware ADS-B
Tue 10:13:44 PM 41.8905 -76.0440 218° Southwest 436 502 35,700 1,905 Climbing FlightAware ADS-B
Tue 10:14:17 PM 41.8380 -76.0973 217° Southwest 426 490 36,700 1,594 Climbing FlightAware ADS-B
Tue 10:14:48 PM 41.7910 -76.1459 218° Southwest 424 488 37,400 1,320 Climbing FlightAware ADS-B
Tue 10:15:07 PM 41.7614 -76.1788 220° Southwest 422 486 37,800 1,200 Climbing FlightAware ADS-B
Tue 10:15:18 PM 41.7465 -76.1995 226° Southwest 421 484 38,000 1,154 Climbing FlightAware ADS-B
Tue 10:15:33 PM 41.7306 -76.2320 237° Southwest 419 482 38,300 933 Climbing FlightAware ADS-B
Tue 10:16:03 PM 41.7011 -76.2991 240° Southwest 420 483 38,700 800 Climbing FlightAware ADS-B
Tue 10:16:33 PM 41.6699 -76.3654 238° Southwest 423 487 39,100 787 Climbing FlightAware ADS-B
Tue 10:17:04 PM 41.6374 -76.4335 237° Southwest 423 487 39,500 818 Climbing FlightAware ADS-B
Tue 10:17:39 PM 41.6002 -76.5098 237° Southwest 422 486 40,000 455 Climbing FlightAware ADS-B
Tue 10:18:10 PM 41.5671 -76.5750 236° Southwest 422 486 40,000  Level FlightAware ADS-B
Tue 10:18:40 PM 41.5342 -76.6424 237° Southwest 421 484 40,000  Level FlightAware ADS-B
Tue 10:19:13 PM 41.5024 -76.7143 239° Southwest 425 489 40,000  Level FlightAware ADS-B
Tue 10:19:45 PM 41.4713 -76.7902 241° Southwest 426 490 40,000  Level FlightAware ADS-B
Tue 10:20:16 PM 41.4418 -76.8617 241° Southwest 428 493 40,000  Level FlightAware ADS-B
Tue 10:20:47 PM 41.4118 -76.9332 241° Southwest 431 496 40,000  Level FlightAware ADS-B
Tue 10:21:17 PM 41.3822 -77.0024 240° Southwest 431 496 40,000  Level FlightAware ADS-B
Tue 10:21:48 PM 41.3524 -77.0715 240° Southwest 432 497 40,000  Level FlightAware ADS-B
Tue 10:22:19 PM 41.3219 -77.1431 240° Southwest 432 497 40,000  Level FlightAware ADS-B
Tue 10:22:49 PM 41.2922 -77.2122 240° Southwest 432 497 40,000  Level FlightAware ADS-B
Tue 10:23:27 PM 41.2548 -77.3020 241° Southwest 431 496 40,000  Level FlightAware ADS-B
Tue 10:24:02 PM 41.2240 -77.3730 240° Southwest 429 494 40,000  Level FlightAware ADS-B
Tue 10:24:38 PM 41.1847 -77.4650 240° Southwest 431 496 40,000  Level FlightAware ADS-B
Tue 10:25:09 PM 41.1540 -77.5359 240° Southwest 430 495 40,000  Level FlightAware ADS-B
Tue 10:25:42 PM 41.1215 -77.6115 240° Southwest 430 495 40,000  Level FlightAware ADS-B
Tue 10:26:21 PM 41.0838 -77.6999 241° Southwest 427 491 40,000  Level FlightAware ADS-B
Tue 10:27:19 PM 41.0269 -77.8310 240° Southwest 426 490 40,000  Level FlightAware ADS-B
Tue 10:28:12 PM 40.9780 -77.9420 240° Southwest 425 489 40,000  Level FlightAware ADS-B
Tue 10:28:46 PM 40.9412 -78.0271 240° Southwest 426 490 40,000  Level FlightAware ADS-B
Tue 10:29:37 PM 40.8940 -78.1350 240° Southwest 426 490 40,000  Level FlightAware ADS-B
Tue 10:30:22 PM 40.8510 -78.2320 240° Southwest 426 490 40,000  Level FlightAware ADS-B
Tue 10:31:02 PM 40.8120 -78.3220 240° Southwest 425 489 40,000  Level FlightAware ADS-B
Tue 10:31:47 PM 40.7700 -78.4160 239° Southwest 424 488 40,000  Level FlightAware ADS-B
Tue 10:32:27 PM 40.7260 -78.5140 239° Southwest 426 490 40,000  Level FlightAware ADS-B
Tue 10:33:07 PM 40.6860 -78.6060 240° Southwest 425 489 40,000  Level FlightAware ADS-B
Tue 10:33:47 PM 40.6480 -78.6880 239° Southwest 424 488 40,000  Level FlightAware ADS-B
Tue 10:34:32 PM 40.6040 -78.7880 240° Southwest 423 487 40,000  Level FlightAware ADS-B
Tue 10:35:27 PM 40.5500 -78.9070 239° Southwest 421 484 40,000  Level FlightAware ADS-B
Tue 10:36:07 PM 40.5100 -78.9950 239° Southwest 421 484 40,000  Level FlightAware ADS-B
Tue 10:36:52 PM 40.4620 -79.1010 239° Southwest 424 488 40,000  Level FlightAware ADS-B
Tue 10:37:37 PM 40.4170 -79.2030 240° Southwest 424 488 40,000  Level FlightAware ADS-B
Tue 10:38:32 PM 40.3590 -79.3290 239° Southwest 427 491 40,000  Level FlightAware ADS-B
Tue 10:39:10 PM 40.3200 -79.4140 239° Southwest 428 493 40,000  Level FlightAware ADS-B
Tue 10:39:56 PM 40.2720 -79.5190 239° Southwest 430 495 40,000  Level FlightAware ADS-B
Tue 10:40:36 PM 40.2320 -79.6060 239° Southwest 432 497 40,000  Level FlightAware ADS-B
Tue 10:41:18 PM 40.1880 -79.7000 239° Southwest 435 501 40,000  Level FlightAware ADS-B
Tue 10:42:04 PM 40.1410 -79.8040 239° Southwest 435 501 40,000  Level FlightAware ADS-B
Tue 10:42:42 PM 40.1000 -79.8920 239° Southwest 436 502 40,000  Level FlightAware ADS-B
Tue 10:43:24 PM 40.0570 -79.9840 239° Southwest 436 502 40,000  Level FlightAware ADS-B
Tue 10:44:06 PM 40.0150 -80.0720 238° Southwest 437 503 40,000  Level FlightAware ADS-B
Tue 10:44:42 PM 39.9750 -80.1570 238° Southwest 438 504 40,000  Level FlightAware ADS-B
Tue 10:46:32 PM 39.8590 -80.4060 239° Southwest 435 501 40,000  Level FlightAware ADS-B
Tue 10:47:11 PM 39.8160 -80.4950 238° Southwest 435 501 40,000  Level FlightAware ADS-B
Tue 10:48:00 PM 39.7660 -80.6020 239° Southwest 435 501 40,000  Level FlightAware ADS-B
Tue 10:48:40 PM 39.7240 -80.6910 238° Southwest 435 501 40,000  Level FlightAware ADS-B
Tue 10:49:24 PM 39.6770 -80.7890 238° Southwest 436 502 40,000  Level FlightAware ADS-B
Tue 10:50:04 PM 39.6330 -80.8800 238° Southwest 435 501 40,000  Level FlightAware ADS-B
Tue 10:50:43 PM 39.5920 -80.9660 238° Southwest 436 502 40,000  Level FlightAware ADS-B
Tue 10:51:30 PM 39.5410 -81.0700 238° Southwest 436 502 40,000  Level FlightAware ADS-B
Tue 10:52:10 PM 39.5030 -81.1590 241° Southwest 436 502 40,000  Level FlightAware ADS-B
Tue 10:52:53 PM 39.4710 -81.2660 249° West 437 503 40,000  Level FlightAware ADS-B
Tue 10:53:34 PM 39.4410 -81.3610 248° West 439 505 40,000  Level FlightAware ADS-B
Tue 10:54:18 PM 39.4090 -81.4670 249° West 440 506 40,000  Level FlightAware ADS-B
Tue 10:54:58 PM 39.3760 -81.5680 247° West 442 509 40,000  Level FlightAware ADS-B
Tue 10:55:40 PM 39.3340 -81.6650 241° Southwest 443 510 40,000  Level FlightAware ADS-B
Tue 10:56:20 PM 39.2890 -81.7540 237° Southwest 442 509 40,000  Level FlightAware ADS-B
Tue 10:57:04 PM 39.2400 -81.8510 237° Southwest 442 509 40,000  Level FlightAware ADS-B
Tue 10:57:45 PM 39.1940 -81.9420 237° Southwest 443 510 40,000  Level FlightAware ADS-B
Tue 10:58:29 PM 39.1440 -82.0410 237° Southwest 443 510 40,000  Level FlightAware ADS-B
Tue 10:59:11 PM 39.0970 -82.1310 236° Southwest 442 509 40,000  Level FlightAware ADS-B
Tue 10:59:51 PM 39.0520 -82.2190 237° Southwest 444 511 40,000  Level FlightAware ADS-B
Tue 11:00:43 PM 38.9940 -82.3310 236° Southwest 444 511 40,000  Level FlightAware ADS-B
Tue 11:01:43 PM 38.9250 -82.4680 237° Southwest 444 511 40,000  Level FlightAware ADS-B
Tue 11:02:28 PM 38.8740 -82.5640 236° Southwest 443 510 40,000  Level FlightAware ADS-B
Tue 11:03:09 PM 38.8270 -82.6540 236° Southwest 443 510 40,000  Level FlightAware ADS-B
Tue 11:03:52 PM 38.7790 -82.7480 237° Southwest 443 510 40,000  Level FlightAware ADS-B
Tue 11:04:33 PM 38.7330 -82.8360 236° Southwest 445 512 40,000  Level FlightAware ADS-B
Tue 11:05:16 PM 38.6840 -82.9300 236° Southwest 447 514 40,000  Level FlightAware ADS-B
Tue 11:05:56 PM 38.6390 -83.0160 236° Southwest 446 513 40,000  Level FlightAware ADS-B
Tue 11:06:32 PM 38.5948 -83.0991 236° Southwest 447 514 40,000  Level FlightAware ADS-B
Tue 11:07:19 PM 38.5410 -83.2020 236° Southwest 448 516 40,000  Level FlightAware ADS-B
Tue 11:08:02 PM 38.4900 -83.2980 236° Southwest 445 512 40,000  Level FlightAware ADS-B
Tue 11:08:56 PM 38.4330 -83.4040 236° Southwest 445 512 40,000  Level FlightAware ADS-B
Tue 11:09:44 PM 38.3840 -83.4920 235° Southwest 445 512 40,000  Level FlightAware ADS-B
Tue 11:10:47 PM 38.2990 -83.6570 237° Southwest 444 511 40,000  Level FlightAware ADS-B
Tue 11:11:25 PM 38.2610 -83.7270 235° Southwest 444 511 40,000  Level FlightAware ADS-B
Tue 11:12:13 PM 38.2130 -83.8140 235° Southwest 444 511 40,000  Level FlightAware ADS-B
Tue 11:12:59 PM 38.1670 -83.8980 235° Southwest 444 511 40,000  Level FlightAware ADS-B
Tue 11:13:38 PM 38.1280 -83.9690 235° Southwest 444 511 40,000  Level FlightAware ADS-B
Tue 11:14:14 PM 38.0920 -84.0340 235° Southwest 444 511 40,000  Level FlightAware ADS-B
Tue 11:15:02 PM 38.0430 -84.1220 235° Southwest 444 511 40,000  Level FlightAware ADS-B
Tue 11:15:28 PM 37.9704 -84.2649 237° Southwest 454 522 40,000  Level FlightAware ADS-B
Tue 11:15:58 PM 37.9337 -84.3326 236° Southwest 454 522 40,000  Level FlightAware ADS-B
Tue 11:16:29 PM 37.8969 -84.4006 236° Southwest 456 525 40,000  Level FlightAware ADS-B
Tue 11:17:00 PM 37.8593 -84.4687 235° Southwest 459 528 40,000  Level FlightAware ADS-B
Tue 11:17:31 PM 37.8221 -84.5372 236° Southwest 461 531 40,000  Level FlightAware ADS-B
Tue 11:18:01 PM 37.7853 -84.6037 235° Southwest 463 533 40,000  Level FlightAware ADS-B
Tue 11:18:39 PM 37.7393 -84.6859 235° Southwest 465 535 40,000  Level FlightAware ADS-B
Tue 11:19:09 PM 37.7022 -84.7528 235° Southwest 465 535 40,000  Level FlightAware ADS-B
Tue 11:19:41 PM 37.6625 -84.8242 235° Southwest 468 539 40,000  Level FlightAware ADS-B
Tue 11:20:12 PM 37.6236 -84.8959 236° Southwest 468 539 40,000  Level FlightAware ADS-B
Tue 11:20:42 PM 37.5859 -84.9628 235° Southwest 469 540 40,000  Level FlightAware ADS-B
Tue 11:21:16 PM 37.5446 -85.0365 235° Southwest 469 540 40,000  Level FlightAware ADS-B
Tue 11:21:46 PM 37.5070 -85.1037 235° Southwest 469 540 40,000  Level FlightAware ADS-B
Tue 11:22:16 PM 37.4692 -85.1729 235° Southwest 469 540 40,000  Level FlightAware ADS-B
Tue 11:22:46 PM 37.4315 -85.2400 235° Southwest 471 542 40,000  Level FlightAware ADS-B
Tue 11:23:16 PM 37.3933 -85.3071 234° Southwest 472 543 40,000  Level FlightAware ADS-B
Tue 11:23:48 PM 37.3535 -85.3787 235° Southwest 473 544 40,000  Level FlightAware ADS-B
Tue 11:24:26 PM 37.3055 -85.4638 235° Southwest 474 545 40,000  Level FlightAware ADS-B
Tue 11:25:03 PM 37.2587 -85.5445 234° Southwest 475 547 40,000  Level FlightAware ADS-B
Tue 11:25:34 PM 37.2182 -85.6163 235° Southwest 476 548 40,000  Level FlightAware ADS-B
Tue 11:26:05 PM 37.1798 -85.6837 234° Southwest 476 548 40,000  Level FlightAware ADS-B
Tue 11:26:47 PM 37.1252 -85.7801 235° Southwest 476 548 40,000  Level FlightAware ADS-B
Tue 11:27:23 PM 37.0810 -85.8560 234° Southwest 475 547 40,000  Level FlightAware ADS-B
Tue 11:27:35 PM 37.0637 -85.8878 236° Southwest 476 548 40,000  Level FlightAware ADS-B
Tue 11:28:10 PM 37.0198 -85.9638 234° Southwest 475 547 40,000  Level FlightAware ADS-B
Tue 11:28:40 PM 36.9807 -86.0329 235° Southwest 475 547 40,000  Level FlightAware ADS-B
Tue 11:29:10 PM 36.9420 -86.0998 234° Southwest 475 547 40,000  Level FlightAware ADS-B
Tue 11:29:41 PM 36.9032 -86.1664 234° Southwest 474 545 40,000  Level FlightAware ADS-B
Tue 11:30:23 PM 36.8487 -86.2619 235° Southwest 476 548 40,000  Level FlightAware ADS-B
Tue 11:30:53 PM 36.8097 -86.3286 234° Southwest 475 547 40,000  Level FlightAware ADS-B
Tue 11:31:25 PM 36.7685 -86.3995 234° Southwest 475 547 40,000  Level FlightAware ADS-B
Tue 11:31:56 PM 36.7283 -86.4682 234° Southwest 475 547 40,000  Level FlightAware ADS-B
Tue 11:32:31 PM 36.6840 -86.5460 235° Southwest 473 544 40,000  Level FlightAware ADS-B
Tue 11:33:16 PM 36.6280 -86.6400 233° Southwest 472 543 40,000  Level FlightAware ADS-B
Tue 11:33:57 PM 36.5740 -86.7320 234° Southwest 471 542 40,000  Level FlightAware ADS-B
Tue 11:34:39 PM 36.5200 -86.8240 234° Southwest 470 541 40,000  Level FlightAware ADS-B
Tue 11:35:23 PM 36.4630 -86.9200 234° Southwest 469 540 40,000  Level FlightAware ADS-B
Tue 11:36:05 PM 36.4090 -87.0110 234° Southwest 468 539 40,000 -72 Level FlightAware ADS-B
Tue 11:36:46 PM 36.3580 -87.0970 234° Southwest 465 535 39,900 -675 Descending FlightAware ADS-B
Tue 11:37:25 PM 36.3070 -87.1860 235° Southwest 468 539 39,100 -1,157 Descending FlightAware ADS-B
Tue 11:38:09 PM 36.2510 -87.2790 233° Southwest 473 544 38,300 -977 Descending FlightAware ADS-B
Tue 11:38:51 PM 36.1950 -87.3710 233° Southwest 472 543 37,700 -732 Descending FlightAware ADS-B
Tue 11:39:31 PM 36.1430 -87.4590 234° Southwest 462 532 37,300 -1,024 Descending FlightAware ADS-B
Tue 11:40:13 PM 36.0900 -87.5480 234° Southwest 460 529 36,300 -1,465 Descending FlightAware ADS-B
Tue 11:40:57 PM 36.0350 -87.6380 233° Southwest 461 531 35,200 -1,227 Descending FlightAware ADS-B
Tue 11:41:41 PM 35.9780 -87.7340 234° Southwest 463 533 34,500 -1,037 Descending FlightAware ADS-B
Tue 11:42:18 PM 35.9310 -87.8100 233° Southwest 468 539 33,800 -1,143 Descending FlightAware ADS-B
Tue 11:43:05 PM 35.8700 -87.9110 233° Southwest 471 542 32,900 -796 Descending FlightAware ADS-B
Tue 11:43:56 PM 35.8080 -88.0120 233° Southwest 473 544 32,500 -235 Descending FlightAware ADS-B
Tue 11:44:47 PM 35.7510 -88.1060 233° Southwest 473 544 32,500  Level FlightAware ADS-B
Tue 11:45:35 PM 35.6970 -88.1930 233° Southwest 473 544 32,500  Level FlightAware ADS-B
Tue 11:46:35 PM 35.6300 -88.3030 233° Southwest 473 544 32,500  Level FlightAware ADS-B
Tue 11:47:11 PM 35.5890 -88.3690 233° Southwest 473 544 32,500  Level FlightAware ADS-B
Tue 11:47:57 PM 35.5380 -88.4530 233° Southwest 473 544 32,500  Level FlightAware ADS-B
Tue 11:48:34 PM 35.4960 -88.5200 232° Southwest 473 544 32,500  Level FlightAware ADS-B
Tue 11:49:22 PM 35.4430 -88.6080 234° Southwest 473 544 32,500  Level FlightAware ADS-B
Tue 11:49:59 PM 35.4010 -88.6750 232° Southwest 473 544 32,500  Level FlightAware ADS-B
Tue 11:50:46 PM 35.3490 -88.7610 233° Southwest 473 544 32,500  Level FlightAware ADS-B
Tue 11:51:22 PM 35.3080 -88.8270 233° Southwest 473 544 32,500  Level FlightAware ADS-B
Tue 11:52:11 PM 35.2530 -88.9160 233° Southwest 473 544 32,500  Level FlightAware ADS-B
Tue 11:52:47 PM 35.2130 -88.9810 233° Southwest 473 544 32,500 -12,000 Level FlightAware ADS-B
Tue 11:54:01 PM 35.0500 -89.0333 233° Southwest 303 349 10,500 -10,682 Descending KMEM
Tue 11:54:59 PM 35.0333 -89.1333 259° West 274 315 9,000 -1,403 Descending KMEM
Tue 11:56:05 PM 35.0333 -89.2333 270° West 276 318 7,600 -1,313 Descending KMEM
Tue 11:57:07 PM 35.0406 -89.3122 276° West 270 311 6,200 -787 Descending Memphis Center
Tue 11:58:07 PM 35.0453 -89.4033 274° West 270 311 6,000 -550 Descending Memphis Center
Tue 11:59:07 PM 35.0461 -89.4897 271° West 270 311 5,100 -1,000 Descending Memphis Center
Wed 12:00:07 AM 35.0486 -89.5808 272° West 265 305 4,000 -550 Descending Memphis Center
Wed 12:01:07 AM 35.0514 -89.6672 272° West 265 305 4,000 -650 Level Memphis Center
Wed 12:02:07 AM 35.0539 -89.7558 272° West 265 305 2,700 -1,000 Descending Memphis Center
Wed 12:03:07 AM 35.0564 -89.8269 272° West 237 273 2,000 -643 Descending Memphis Center
Wed 12:03:59 AM 35.0500 -89.8833 262° West 153 176 1,500 -626 Descending KMEM
Wed 12:05:02 AM 35.0500 -89.9167 270° West 121 139 800 10,691 Descending KMEM
Wed 12:07:07 AM 35.0592 -90.0375 275° West 142 163 35,000 16,416 Climbing Memphis Center
Wed 12:09:00 AM 35.0424 -89.9767 270° West  Level Estimated
Wed 12:16:00 AM 35.0424 -89.9767 270° West  Level Estimated
Wed 12:17:00 AM 35.0424 -89.9767 270° West  Level Estimated
Wed 12:18:00 AM 35.0424 -89.9767 270° West  Level Estimated
Wed 12:19:00 AM 35.0424 -89.9767 270° West  Level Estimated
Wed 12:20:00 AM 35.0424 -89.9767 270° West  Level Estimated
Wed 12:21:00 AM 35.0424 -89.9767 270° West  Level Estimated
Wed 12:22:00 AM 35.0424 -89.9767 270° West  Level Estimated
Wed 12:23:00 AM 35.0424 -89.9767 270° West  Level Estimated

Login

Don't have an account? Register now (free) for customized features, flight alerts, and more!